sensor_id;sensor_type;location;lat;lon;timestamp;temperature;humidity
35970;DHT22;22448;51.298;6.430;2023-02-20T00:00:33;4.40;99.90
35970;DHT22;22448;51.298;6.430;2023-02-20T00:03:03;4.30;99.90
35970;DHT22;22448;51.298;6.430;2023-02-20T00:05:30;4.40;99.90
35970;DHT22;22448;51.298;6.430;2023-02-20T00:07:58;4.40;99.90
35970;DHT22;22448;51.298;6.430;2023-02-20T00:10:25;4.40;99.90
35970;DHT22;22448;51.298;6.430;2023-02-20T00:12:52;4.40;99.90
35970;DHT22;22448;51.298;6.430;2023-02-20T00:15:21;4.40;99.90
35970;DHT22;22448;51.298;6.430;2023-02-20T00:17:48;4.40;99.90
35970;DHT22;22448;51.298;6.430;2023-02-20T00:20:20;4.40;99.90
35970;DHT22;22448;51.298;6.430;2023-02-20T00:22:48;4.40;99.90
35970;DHT22;22448;51.298;6.430;2023-02-20T00:25:16;4.40;99.90
35970;DHT22;22448;51.298;6.430;2023-02-20T00:27:43;4.40;99.90
35970;DHT22;22448;51.298;6.430;2023-02-20T00:30:14;4.40;99.90
35970;DHT22;22448;51.298;6.430;2023-02-20T00:32:42;4.40;99.90
35970;DHT22;22448;51.298;6.430;2023-02-20T00:35:10;4.50;99.90
35970;DHT22;22448;51.298;6.430;2023-02-20T00:37:37;4.50;99.90
35970;DHT22;22448;51.298;6.430;2023-02-20T00:40:05;4.50;99.90
35970;DHT22;22448;51.298;6.430;2023-02-20T00:42:32;4.50;99.90
35970;DHT22;22448;51.298;6.430;2023-02-20T00:44:59;4.50;99.90
35970;DHT22;22448;51.298;6.430;2023-02-20T00:47:26;4.50;99.90
35970;DHT22;22448;51.298;6.430;2023-02-20T00:49:53;4.60;99.90
35970;DHT22;22448;51.298;6.430;2023-02-20T00:52:21;4.60;99.90
35970;DHT22;22448;51.298;6.430;2023-02-20T00:54:49;4.60;99.90
35970;DHT22;22448;51.298;6.430;2023-02-20T00:57:17;4.70;99.90
35970;DHT22;22448;51.298;6.430;2023-02-20T00:59:44;4.70;99.90
35970;DHT22;22448;51.298;6.430;2023-02-20T01:02:11;4.70;99.90
35970;DHT22;22448;51.298;6.430;2023-02-20T01:04:38;4.70;99.90
35970;DHT22;22448;51.298;6.430;2023-02-20T01:07:05;4.80;99.90
35970;DHT22;22448;51.298;6.430;2023-02-20T01:09:32;4.80;99.90
35970;DHT22;22448;51.298;6.430;2023-02-20T01:11:59;4.80;99.90
35970;DHT22;22448;51.298;6.430;2023-02-20T01:14:26;4.80;99.90
35970;DHT22;22448;51.298;6.430;2023-02-20T01:16:53;4.80;99.90
35970;DHT22;22448;51.298;6.430;2023-02-20T01:19:22;4.80;99.90
35970;DHT22;22448;51.298;6.430;2023-02-20T01:21:51;4.80;99.90
35970;DHT22;22448;51.298;6.430;2023-02-20T01:24:19;4.80;99.90
35970;DHT22;22448;51.298;6.430;2023-02-20T01:26:48;4.80;99.90
35970;DHT22;22448;51.298;6.430;2023-02-20T01:29:16;4.90;99.90
35970;DHT22;22448;51.298;6.430;2023-02-20T01:31:50;4.90;99.90
35970;DHT22;22448;51.298;6.430;2023-02-20T01:34:19;4.90;99.90
35970;DHT22;22448;51.298;6.430;2023-02-20T01:36:49;4.90;99.90
35970;DHT22;22448;51.298;6.430;2023-02-20T01:39:23;4.90;99.90
35970;DHT22;22448;51.298;6.430;2023-02-20T01:41:54;5.00;99.90
35970;DHT22;22448;51.298;6.430;2023-02-20T01:44:28;5.10;99.90
35970;DHT22;22448;51.298;6.430;2023-02-20T01:47:06;5.10;99.90
35970;DHT22;22448;51.298;6.430;2023-02-20T01:49:40;5.20;99.90
35970;DHT22;22448;51.298;6.430;2023-02-20T01:52:19;5.20;99.90
35970;DHT22;22448;51.298;6.430;2023-02-20T01:54:59;5.30;99.90
35970;DHT22;22448;51.298;6.430;2023-02-20T01:57:31;5.30;99.90
35970;DHT22;22448;51.298;6.430;2023-02-20T02:00:04;5.30;99.90
35970;DHT22;22448;51.298;6.430;2023-02-20T02:02:47;5.30;99.90
35970;DHT22;22448;51.298;6.430;2023-02-20T02:05:16;5.20;99.90
35970;DHT22;22448;51.298;6.430;2023-02-20T02:07:44;5.10;99.90
35970;DHT22;22448;51.298;6.430;2023-02-20T02:10:24;5.10;99.90
35970;DHT22;22448;51.298;6.430;2023-02-20T02:12:53;5.00;99.90
35970;DHT22;22448;51.298;6.430;2023-02-20T02:15:23;5.00;99.90
35970;DHT22;22448;51.298;6.430;2023-02-20T02:27:04;5.00;99.90
35970;DHT22;22448;51.298;6.430;2023-02-20T02:33:54;4.90;99.90
35970;DHT22;22448;51.298;6.430;2023-02-20T02:39:40;5.00;99.90
35970;DHT22;22448;51.298;6.430;2023-02-20T02:42:28;5.00;99.90
35970;DHT22;22448;51.298;6.430;2023-02-20T02:47:36;5.00;99.90
35970;DHT22;22448;51.298;6.430;2023-02-20T02:50:16;4.90;99.90
35970;DHT22;22448;51.298;6.430;2023-02-20T02:52:44;4.90;99.90
35970;DHT22;22448;51.298;6.430;2023-02-20T02:55:27;4.80;99.90
35970;DHT22;22448;51.298;6.430;2023-02-20T02:57:54;4.80;99.90
35970;DHT22;22448;51.298;6.430;2023-02-20T03:03:12;4.80;99.90
35970;DHT22;22448;51.298;6.430;2023-02-20T03:05:56;4.70;99.90
35970;DHT22;22448;51.298;6.430;2023-02-20T03:11:11;4.70;99.90
35970;DHT22;22448;51.298;6.430;2023-02-20T03:19:42;4.70;99.90
35970;DHT22;22448;51.298;6.430;2023-02-20T03:22:18;4.70;99.90
35970;DHT22;22448;51.298;6.430;2023-02-20T03:24:49;4.70;99.90
35970;DHT22;22448;51.298;6.430;2023-02-20T03:29:57;4.70;99.90
35970;DHT22;22448;51.298;6.430;2023-02-20T03:32:26;4.70;99.90
35970;DHT22;22448;51.298;6.430;2023-02-20T03:35:16;4.70;99.90
35970;DHT22;22448;51.298;6.430;2023-02-20T03:38:04;4.70;99.90
35970;DHT22;22448;51.298;6.430;2023-02-20T03:40:51;4.70;99.90
35970;DHT22;22448;51.298;6.430;2023-02-20T03:43:39;4.70;99.90
35970;DHT22;22448;51.298;6.430;2023-02-20T03:46:10;4.70;99.90
35970;DHT22;22448;51.298;6.430;2023-02-20T03:48:56;4.60;99.90
35970;DHT22;22448;51.298;6.430;2023-02-20T03:51:25;4.50;99.90
35970;DHT22;22448;51.298;6.430;2023-02-20T03:54:15;4.50;99.90
35970;DHT22;22448;51.298;6.430;2023-02-20T03:56:47;4.50;99.90
35970;DHT22;22448;51.298;6.430;2023-02-20T03:59:23;4.50;99.90
35970;DHT22;22448;51.298;6.430;2023-02-20T04:01:55;4.50;99.90
35970;DHT22;22448;51.298;6.430;2023-02-20T04:04:29;4.50;99.90
35970;DHT22;22448;51.298;6.430;2023-02-20T04:06:58;4.50;99.90
35970;DHT22;22448;51.298;6.430;2023-02-20T04:09:28;4.50;99.90
35970;DHT22;22448;51.298;6.430;2023-02-20T04:12:06;4.50;99.90
35970;DHT22;22448;51.298;6.430;2023-02-20T04:14:35;4.50;99.90
35970;DHT22;22448;51.298;6.430;2023-02-20T04:17:08;4.50;99.90
35970;DHT22;22448;51.298;6.430;2023-02-20T04:19:37;4.50;99.90
35970;DHT22;22448;51.298;6.430;2023-02-20T04:22:10;4.40;99.90
35970;DHT22;22448;51.298;6.430;2023-02-20T04:24:57;4.40;99.90
35970;DHT22;22448;51.298;6.430;2023-02-20T04:27:28;4.40;99.90
35970;DHT22;22448;51.298;6.430;2023-02-20T04:29:58;4.40;99.90
35970;DHT22;22448;51.298;6.430;2023-02-20T04:32:25;4.40;99.90
35970;DHT22;22448;51.298;6.430;2023-02-20T04:34:52;4.40;99.90
35970;DHT22;22448;51.298;6.430;2023-02-20T04:37:19;4.40;99.90
35970;DHT22;22448;51.298;6.430;2023-02-20T04:39:50;4.40;99.90
35970;DHT22;22448;51.298;6.430;2023-02-20T04:42:17;4.40;99.90
35970;DHT22;22448;51.298;6.430;2023-02-20T04:44:44;4.40;99.90
35970;DHT22;22448;51.298;6.430;2023-02-20T04:47:14;4.50;99.90
35970;DHT22;22448;51.298;6.430;2023-02-20T04:49:42;4.50;99.90
35970;DHT22;22448;51.298;6.430;2023-02-20T04:52:13;4.50;99.90
35970;DHT22;22448;51.298;6.430;2023-02-20T04:54:40;4.50;99.90
35970;DHT22;22448;51.298;6.430;2023-02-20T04:57:09;4.60;99.90
35970;DHT22;22448;51.298;6.430;2023-02-20T04:59:36;4.70;99.90
35970;DHT22;22448;51.298;6.430;2023-02-20T05:02:04;4.70;99.90
35970;DHT22;22448;51.298;6.430;2023-02-20T05:04:31;4.80;99.90
35970;DHT22;22448;51.298;6.430;2023-02-20T05:06:58;4.80;99.90
35970;DHT22;22448;51.298;6.430;2023-02-20T05:09:25;4.90;99.90
35970;DHT22;22448;51.298;6.430;2023-02-20T05:11:52;4.90;99.90
35970;DHT22;22448;51.298;6.430;2023-02-20T05:14:20;4.90;99.90
35970;DHT22;22448;51.298;6.430;2023-02-20T05:16:47;4.90;99.90
35970;DHT22;22448;51.298;6.430;2023-02-20T05:19:14;4.90;99.90
35970;DHT22;22448;51.298;6.430;2023-02-20T05:21:45;4.90;99.90
35970;DHT22;22448;51.298;6.430;2023-02-20T05:24:31;5.00;99.90
35970;DHT22;22448;51.298;6.430;2023-02-20T05:26:58;5.00;99.90
35970;DHT22;22448;51.298;6.430;2023-02-20T05:29:25;5.00;99.90
35970;DHT22;22448;51.298;6.430;2023-02-20T05:31:53;5.10;99.90
35970;DHT22;22448;51.298;6.430;2023-02-20T05:34:20;5.10;99.90
35970;DHT22;22448;51.298;6.430;2023-02-20T05:36:48;5.10;99.90
35970;DHT22;22448;51.298;6.430;2023-02-20T05:39:15;5.10;99.90
35970;DHT22;22448;51.298;6.430;2023-02-20T05:41:42;5.10;99.90
35970;DHT22;22448;51.298;6.430;2023-02-20T05:44:09;5.10;99.90
35970;DHT22;22448;51.298;6.430;2023-02-20T05:46:40;5.10;99.90
35970;DHT22;22448;51.298;6.430;2023-02-20T05:49:09;5.10;99.90
35970;DHT22;22448;51.298;6.430;2023-02-20T05:51:36;5.10;99.90
35970;DHT22;22448;51.298;6.430;2023-02-20T05:54:03;5.10;99.90
35970;DHT22;22448;51.298;6.430;2023-02-20T05:56:31;5.10;99.90
35970;DHT22;22448;51.298;6.430;2023-02-20T05:59:00;5.10;99.90
35970;DHT22;22448;51.298;6.430;2023-02-20T06:01:29;5.10;99.90
35970;DHT22;22448;51.298;6.430;2023-02-20T06:03:56;5.20;99.90
35970;DHT22;22448;51.298;6.430;2023-02-20T06:06:37;5.20;99.90
35970;DHT22;22448;51.298;6.430;2023-02-20T06:09:05;5.20;99.90
35970;DHT22;22448;51.298;6.430;2023-02-20T06:11:38;5.20;99.90
35970;DHT22;22448;51.298;6.430;2023-02-20T06:14:06;5.20;99.90
35970;DHT22;22448;51.298;6.430;2023-02-20T06:16:34;5.20;99.90
35970;DHT22;22448;51.298;6.430;2023-02-20T06:19:01;5.20;99.90
35970;DHT22;22448;51.298;6.430;2023-02-20T06:21:28;5.20;99.90
35970;DHT22;22448;51.298;6.430;2023-02-20T06:23:55;5.20;99.90
35970;DHT22;22448;51.298;6.430;2023-02-20T06:26:22;5.20;99.90
35970;DHT22;22448;51.298;6.430;2023-02-20T06:28:49;5.20;99.90
35970;DHT22;22448;51.298;6.430;2023-02-20T06:31:24;5.20;99.90
35970;DHT22;22448;51.298;6.430;2023-02-20T06:33:52;5.20;99.90
35970;DHT22;22448;51.298;6.430;2023-02-20T06:36:26;5.20;99.90
35970;DHT22;22448;51.298;6.430;2023-02-20T06:38:54;5.20;99.90
35970;DHT22;22448;51.298;6.430;2023-02-20T06:41:24;5.20;99.90
35970;DHT22;22448;51.298;6.430;2023-02-20T06:43:51;5.30;99.90
35970;DHT22;22448;51.298;6.430;2023-02-20T06:46:18;5.30;99.90
35970;DHT22;22448;51.298;6.430;2023-02-20T06:48:46;5.30;99.90
35970;DHT22;22448;51.298;6.430;2023-02-20T06:51:22;5.20;99.90
35970;DHT22;22448;51.298;6.430;2023-02-20T06:53:49;5.30;99.90
35970;DHT22;22448;51.298;6.430;2023-02-20T06:56:18;5.30;99.90
35970;DHT22;22448;51.298;6.430;2023-02-20T06:58:47;5.30;99.90
35970;DHT22;22448;51.298;6.430;2023-02-20T07:01:16;5.30;99.90
35970;DHT22;22448;51.298;6.430;2023-02-20T07:03:43;5.40;99.90
35970;DHT22;22448;51.298;6.430;2023-02-20T07:06:11;5.40;99.90
35970;DHT22;22448;51.298;6.430;2023-02-20T07:08:39;5.40;99.90
35970;DHT22;22448;51.298;6.430;2023-02-20T07:11:06;5.40;99.90
35970;DHT22;22448;51.298;6.430;2023-02-20T07:13:33;5.50;99.90
35970;DHT22;22448;51.298;6.430;2023-02-20T07:16:00;5.50;99.90
35970;DHT22;22448;51.298;6.430;2023-02-20T07:18:27;5.50;99.90
35970;DHT22;22448;51.298;6.430;2023-02-20T07:20:54;5.60;99.90
35970;DHT22;22448;51.298;6.430;2023-02-20T07:23:28;5.60;99.90
35970;DHT22;22448;51.298;6.430;2023-02-20T07:25:55;5.60;99.90
35970;DHT22;22448;51.298;6.430;2023-02-20T07:28:22;5.70;99.90
35970;DHT22;22448;51.298;6.430;2023-02-20T07:30:49;5.70;99.90
35970;DHT22;22448;51.298;6.430;2023-02-20T07:33:17;5.80;99.90
35970;DHT22;22448;51.298;6.430;2023-02-20T07:35:45;5.80;99.90
35970;DHT22;22448;51.298;6.430;2023-02-20T07:38:13;5.80;99.90
35970;DHT22;22448;51.298;6.430;2023-02-20T07:40:40;5.90;99.90
35970;DHT22;22448;51.298;6.430;2023-02-20T07:43:07;5.90;99.90
35970;DHT22;22448;51.298;6.430;2023-02-20T07:45:36;5.90;99.90
35970;DHT22;22448;51.298;6.430;2023-02-20T07:48:05;6.00;99.90
35970;DHT22;22448;51.298;6.430;2023-02-20T07:50:32;6.10;99.90
35970;DHT22;22448;51.298;6.430;2023-02-20T07:52:59;6.20;99.90
35970;DHT22;22448;51.298;6.430;2023-02-20T07:55:27;6.20;99.90
35970;DHT22;22448;51.298;6.430;2023-02-20T07:57:54;6.30;99.90
35970;DHT22;22448;51.298;6.430;2023-02-20T08:00:25;6.40;99.90
35970;DHT22;22448;51.298;6.430;2023-02-20T08:02:53;6.40;99.90
35970;DHT22;22448;51.298;6.430;2023-02-20T08:05:20;6.40;99.90
35970;DHT22;22448;51.298;6.430;2023-02-20T08:07:49;6.40;99.90
35970;DHT22;22448;51.298;6.430;2023-02-20T08:10:19;6.40;99.90
35970;DHT22;22448;51.298;6.430;2023-02-20T08:12:48;6.40;99.90
35970;DHT22;22448;51.298;6.430;2023-02-20T08:15:17;6.50;99.90
35970;DHT22;22448;51.298;6.430;2023-02-20T08:17:44;6.50;99.90
35970;DHT22;22448;51.298;6.430;2023-02-20T08:20:15;6.50;99.90
35970;DHT22;22448;51.298;6.430;2023-02-20T08:22:44;6.50;99.90
35970;DHT22;22448;51.298;6.430;2023-02-20T08:25:11;6.60;99.90
35970;DHT22;22448;51.298;6.430;2023-02-20T08:27:43;6.60;99.90
35970;DHT22;22448;51.298;6.430;2023-02-20T08:30:18;6.60;99.90
35970;DHT22;22448;51.298;6.430;2023-02-20T08:32:45;6.60;99.90
35970;DHT22;22448;51.298;6.430;2023-02-20T08:35:12;6.60;99.90
35970;DHT22;22448;51.298;6.430;2023-02-20T08:37:39;6.60;99.90
35970;DHT22;22448;51.298;6.430;2023-02-20T08:40:07;6.60;99.90
35970;DHT22;22448;51.298;6.430;2023-02-20T08:42:34;6.60;99.90
35970;DHT22;22448;51.298;6.430;2023-02-20T08:45:03;6.60;99.90
35970;DHT22;22448;51.298;6.430;2023-02-20T08:47:31;6.70;99.90
35970;DHT22;22448;51.298;6.430;2023-02-20T08:49:58;6.70;99.90
35970;DHT22;22448;51.298;6.430;2023-02-20T08:52:25;6.80;99.90
35970;DHT22;22448;51.298;6.430;2023-02-20T08:54:52;6.90;99.90
35970;DHT22;22448;51.298;6.430;2023-02-20T08:57:19;6.90;99.90
35970;DHT22;22448;51.298;6.430;2023-02-20T08:59:46;7.00;99.90
35970;DHT22;22448;51.298;6.430;2023-02-20T09:02:18;7.10;99.90
35970;DHT22;22448;51.298;6.430;2023-02-20T09:04:45;7.10;99.90
35970;DHT22;22448;51.298;6.430;2023-02-20T09:07:13;7.10;99.90
35970;DHT22;22448;51.298;6.430;2023-02-20T09:09:40;7.10;99.90
35970;DHT22;22448;51.298;6.430;2023-02-20T09:12:08;7.20;99.90
35970;DHT22;22448;51.298;6.430;2023-02-20T09:14:35;7.20;99.90
35970;DHT22;22448;51.298;6.430;2023-02-20T09:17:02;7.20;99.90
35970;DHT22;22448;51.298;6.430;2023-02-20T09:19:30;7.20;99.90
35970;DHT22;22448;51.298;6.430;2023-02-20T09:21:58;7.30;99.90
35970;DHT22;22448;51.298;6.430;2023-02-20T09:24:24;7.30;99.90
35970;DHT22;22448;51.298;6.430;2023-02-20T09:26:58;7.40;99.90
35970;DHT22;22448;51.298;6.430;2023-02-20T09:29:25;7.40;99.90
35970;DHT22;22448;51.298;6.430;2023-02-20T09:31:52;7.50;99.90
35970;DHT22;22448;51.298;6.430;2023-02-20T09:34:20;7.50;99.90
35970;DHT22;22448;51.298;6.430;2023-02-20T09:36:47;7.50;99.90
35970;DHT22;22448;51.298;6.430;2023-02-20T09:39:13;7.50;99.90
35970;DHT22;22448;51.298;6.430;2023-02-20T09:42:09;7.60;99.90
35970;DHT22;22448;51.298;6.430;2023-02-20T09:44:55;7.60;99.90
35970;DHT22;22448;51.298;6.430;2023-02-20T09:48:34;7.60;99.90
35970;DHT22;22448;51.298;6.430;2023-02-20T09:50:48;7.60;99.90
35970;DHT22;22448;51.298;6.430;2023-02-20T09:53:49;7.70;99.90
35970;DHT22;22448;51.298;6.430;2023-02-20T09:56:21;7.70;99.90
35970;DHT22;22448;51.298;6.430;2023-02-20T09:59:06;7.80;99.90
35970;DHT22;22448;51.298;6.430;2023-02-20T10:01:34;7.80;99.90
35970;DHT22;22448;51.298;6.430;2023-02-20T10:04:09;7.70;99.90
35970;DHT22;22448;51.298;6.430;2023-02-20T10:06:37;7.80;99.90
35970;DHT22;22448;51.298;6.430;2023-02-20T10:09:12;7.70;99.90
35970;DHT22;22448;51.298;6.430;2023-02-20T10:12:09;7.70;99.90
35970;DHT22;22448;51.298;6.430;2023-02-20T10:14:53;7.70;99.90
35970;DHT22;22448;51.298;6.430;2023-02-20T10:20:22;7.80;99.90
35970;DHT22;22448;51.298;6.430;2023-02-20T10:25:34;7.80;99.90
35970;DHT22;22448;51.298;6.430;2023-02-20T10:28:20;7.80;99.90
35970;DHT22;22448;51.298;6.430;2023-02-20T10:31:08;7.80;99.90
35970;DHT22;22448;51.298;6.430;2023-02-20T10:33:49;7.90;99.90
35970;DHT22;22448;51.298;6.430;2023-02-20T10:36:24;8.00;99.90
35970;DHT22;22448;51.298;6.430;2023-02-20T10:39:17;8.00;99.90
35970;DHT22;22448;51.298;6.430;2023-02-20T10:41:53;8.10;99.90
35970;DHT22;22448;51.298;6.430;2023-02-20T10:44:44;8.20;99.90
35970;DHT22;22448;51.298;6.430;2023-02-20T10:50:08;8.20;99.90
35970;DHT22;22448;51.298;6.430;2023-02-20T10:52:46;8.20;99.90
35970;DHT22;22448;51.298;6.430;2023-02-20T10:55:25;8.10;99.90
35970;DHT22;22448;51.298;6.430;2023-02-20T10:58:02;8.20;99.90
35970;DHT22;22448;51.298;6.430;2023-02-20T11:00:45;8.20;99.90
35970;DHT22;22448;51.298;6.430;2023-02-20T11:03:44;8.20;99.90
35970;DHT22;22448;51.298;6.430;2023-02-20T11:06:16;8.20;99.90
35970;DHT22;22448;51.298;6.430;2023-02-20T11:08:45;8.20;99.90
35970;DHT22;22448;51.298;6.430;2023-02-20T11:11:30;8.30;99.90
35970;DHT22;22448;51.298;6.430;2023-02-20T11:13:59;8.30;99.90
35970;DHT22;22448;51.298;6.430;2023-02-20T11:16:35;8.40;99.90
35970;DHT22;22448;51.298;6.430;2023-02-20T11:19:19;8.40;99.90
35970;DHT22;22448;51.298;6.430;2023-02-20T11:21:49;8.40;99.90
35970;DHT22;22448;51.298;6.430;2023-02-20T11:24:27;8.30;99.90
35970;DHT22;22448;51.298;6.430;2023-02-20T11:27:04;8.30;99.90
35970;DHT22;22448;51.298;6.430;2023-02-20T11:30:15;8.30;99.90
35970;DHT22;22448;51.298;6.430;2023-02-20T11:32:42;8.30;99.90
35970;DHT22;22448;51.298;6.430;2023-02-20T11:35:21;8.20;99.90
35970;DHT22;22448;51.298;6.430;2023-02-20T11:40:37;8.30;99.90
35970;DHT22;22448;51.298;6.430;2023-02-20T11:43:18;8.20;99.90
35970;DHT22;22448;51.298;6.430;2023-02-20T11:45:46;8.20;99.90
35970;DHT22;22448;51.298;6.430;2023-02-20T11:48:16;8.10;99.90
35970;DHT22;22448;51.298;6.430;2023-02-20T11:50:47;8.20;99.90
35970;DHT22;22448;51.298;6.430;2023-02-20T11:53:30;8.10;99.90
35970;DHT22;22448;51.298;6.430;2023-02-20T11:58:37;8.10;99.90
35970;DHT22;22448;51.298;6.430;2023-02-20T12:01:05;8.10;99.90
35970;DHT22;22448;51.298;6.430;2023-02-20T12:03:34;8.10;99.90
35970;DHT22;22448;51.298;6.430;2023-02-20T12:09:03;8.10;99.90
35970;DHT22;22448;51.298;6.430;2023-02-20T12:11:32;8.20;99.90
35970;DHT22;22448;51.298;6.430;2023-02-20T12:13:59;8.10;99.90
35970;DHT22;22448;51.298;6.430;2023-02-20T12:17:10;8.10;99.90
35970;DHT22;22448;51.298;6.430;2023-02-20T12:20:05;8.10;99.90
35970;DHT22;22448;51.298;6.430;2023-02-20T12:22:43;8.10;99.90
35970;DHT22;22448;51.298;6.430;2023-02-20T12:30:31;8.20;99.90
35970;DHT22;22448;51.298;6.430;2023-02-20T12:33:22;8.20;99.90
35970;DHT22;22448;51.298;6.430;2023-02-20T12:41:32;8.30;99.90
35970;DHT22;22448;51.298;6.430;2023-02-20T12:49:25;8.40;99.90
35970;DHT22;22448;51.298;6.430;2023-02-20T12:55:31;8.30;99.90
35970;DHT22;22448;51.298;6.430;2023-02-20T12:58:14;8.40;99.90
35970;DHT22;22448;51.298;6.430;2023-02-20T13:00:46;8.30;99.90
35970;DHT22;22448;51.298;6.430;2023-02-20T13:03:22;8.40;99.90
35970;DHT22;22448;51.298;6.430;2023-02-20T13:05:51;8.40;99.90
35970;DHT22;22448;51.298;6.430;2023-02-20T13:08:26;8.40;99.90
35970;DHT22;22448;51.298;6.430;2023-02-20T13:10:59;8.40;99.90
35970;DHT22;22448;51.298;6.430;2023-02-20T13:13:43;8.40;99.90
35970;DHT22;22448;51.298;6.430;2023-02-20T13:16:18;8.40;99.90
35970;DHT22;22448;51.298;6.430;2023-02-20T13:18:53;8.40;99.90
35970;DHT22;22448;51.298;6.430;2023-02-20T13:21:24;8.40;99.90
35970;DHT22;22448;51.298;6.430;2023-02-20T13:26:55;8.40;99.90
35970;DHT22;22448;51.298;6.430;2023-02-20T13:29:27;8.40;99.90
35970;DHT22;22448;51.298;6.430;2023-02-20T13:31:56;8.40;99.90
35970;DHT22;22448;51.298;6.430;2023-02-20T13:34:34;8.40;99.90
35970;DHT22;22448;51.298;6.430;2023-02-20T13:37:03;8.40;99.90
35970;DHT22;22448;51.298;6.430;2023-02-20T13:42:00;8.50;99.90
35970;DHT22;22448;51.298;6.430;2023-02-20T13:44:43;8.50;99.90
35970;DHT22;22448;51.298;6.430;2023-02-20T13:49:55;8.60;99.90
35970;DHT22;22448;51.298;6.430;2023-02-20T13:52:38;8.60;99.90
35970;DHT22;22448;51.298;6.430;2023-02-20T13:57:54;8.60;99.90
35970;DHT22;22448;51.298;6.430;2023-02-20T14:00:39;8.50;99.90
35970;DHT22;22448;51.298;6.430;2023-02-20T14:03:18;8.50;99.90
35970;DHT22;22448;51.298;6.430;2023-02-20T14:05:46;8.50;99.90
35970;DHT22;22448;51.298;6.430;2023-02-20T14:08:26;8.50;99.90
35970;DHT22;22448;51.298;6.430;2023-02-20T14:10:53;8.40;99.90
35970;DHT22;22448;51.298;6.430;2023-02-20T14:13:22;8.40;99.90
35970;DHT22;22448;51.298;6.430;2023-02-20T14:19:01;8.40;99.90
35970;DHT22;22448;51.298;6.430;2023-02-20T14:21:29;8.40;99.90
35970;DHT22;22448;51.298;6.430;2023-02-20T14:23:56;8.40;99.90
35970;DHT22;22448;51.298;6.430;2023-02-20T14:26:36;8.40;99.90
35970;DHT22;22448;51.298;6.430;2023-02-20T14:29:19;8.40;99.90
35970;DHT22;22448;51.298;6.430;2023-02-20T14:31:50;8.40;99.90
35970;DHT22;22448;51.298;6.430;2023-02-20T14:40:24;8.20;99.90
35970;DHT22;22448;51.298;6.430;2023-02-20T14:42:59;8.20;99.90
35970;DHT22;22448;51.298;6.430;2023-02-20T14:45:27;8.20;99.90
35970;DHT22;22448;51.298;6.430;2023-02-20T14:47:59;8.20;99.90
35970;DHT22;22448;51.298;6.430;2023-02-20T14:50:32;8.20;99.90
35970;DHT22;22448;51.298;6.430;2023-02-20T14:53:23;8.20;99.90
35970;DHT22;22448;51.298;6.430;2023-02-20T14:55:50;8.30;99.90
35970;DHT22;22448;51.298;6.430;2023-02-20T14:58:20;8.30;99.90
35970;DHT22;22448;51.298;6.430;2023-02-20T15:00:49;8.30;99.90
35970;DHT22;22448;51.298;6.430;2023-02-20T15:03:21;8.20;99.90
35970;DHT22;22448;51.298;6.430;2023-02-20T15:06:01;8.20;99.90
35970;DHT22;22448;51.298;6.430;2023-02-20T15:08:34;8.20;99.90
35970;DHT22;22448;51.298;6.430;2023-02-20T15:11:08;8.20;99.90
35970;DHT22;22448;51.298;6.430;2023-02-20T15:13:38;8.20;99.90
35970;DHT22;22448;51.298;6.430;2023-02-20T15:16:21;8.20;99.90
35970;DHT22;22448;51.298;6.430;2023-02-20T15:18:50;8.20;99.90
35970;DHT22;22448;51.298;6.430;2023-02-20T15:21:56;8.20;99.90
35970;DHT22;22448;51.298;6.430;2023-02-20T15:24:35;8.20;99.90
35970;DHT22;22448;51.298;6.430;2023-02-20T15:27:22;8.20;99.90
35970;DHT22;22448;51.298;6.430;2023-02-20T15:30:13;8.20;99.90
35970;DHT22;22448;51.298;6.430;2023-02-20T15:32:42;8.20;99.90
35970;DHT22;22448;51.298;6.430;2023-02-20T15:35:19;8.20;99.90
35970;DHT22;22448;51.298;6.430;2023-02-20T15:37:47;8.20;99.90
35970;DHT22;22448;51.298;6.430;2023-02-20T15:40:32;8.20;99.90
35970;DHT22;22448;51.298;6.430;2023-02-20T15:43:00;8.20;99.90
35970;DHT22;22448;51.298;6.430;2023-02-20T15:45:30;8.20;99.90
35970;DHT22;22448;51.298;6.430;2023-02-20T15:47:57;8.20;99.90
35970;DHT22;22448;51.298;6.430;2023-02-20T15:50:24;8.20;99.90
35970;DHT22;22448;51.298;6.430;2023-02-20T15:52:55;8.20;99.90
35970;DHT22;22448;51.298;6.430;2023-02-20T15:55:24;8.20;99.90
35970;DHT22;22448;51.298;6.430;2023-02-20T15:57:54;8.20;99.90
35970;DHT22;22448;51.298;6.430;2023-02-20T16:00:26;8.20;99.90
35970;DHT22;22448;51.298;6.430;2023-02-20T16:02:53;8.20;99.90
35970;DHT22;22448;51.298;6.430;2023-02-20T16:05:21;8.20;99.90
35970;DHT22;22448;51.298;6.430;2023-02-20T16:07:48;8.20;99.90
35970;DHT22;22448;51.298;6.430;2023-02-20T16:10:17;8.20;99.90
35970;DHT22;22448;51.298;6.430;2023-02-20T16:12:45;8.20;99.90
35970;DHT22;22448;51.298;6.430;2023-02-20T16:15:17;8.20;99.90
35970;DHT22;22448;51.298;6.430;2023-02-20T16:17:48;8.20;99.90
35970;DHT22;22448;51.298;6.430;2023-02-20T16:20:21;8.20;99.90
35970;DHT22;22448;51.298;6.430;2023-02-20T16:22:48;8.10;99.90
35970;DHT22;22448;51.298;6.430;2023-02-20T16:25:17;8.10;99.90
35970;DHT22;22448;51.298;6.430;2023-02-20T16:27:45;8.10;99.90
35970;DHT22;22448;51.298;6.430;2023-02-20T16:30:21;8.20;99.90
35970;DHT22;22448;51.298;6.430;2023-02-20T16:33:01;8.10;99.90
35970;DHT22;22448;51.298;6.430;2023-02-20T16:35:28;8.10;99.90
35970;DHT22;22448;51.298;6.430;2023-02-20T16:37:55;8.10;99.90
35970;DHT22;22448;51.298;6.430;2023-02-20T16:40:22;8.10;99.90
35970;DHT22;22448;51.298;6.430;2023-02-20T16:42:49;8.10;99.90
35970;DHT22;22448;51.298;6.430;2023-02-20T16:45:18;8.10;99.90
35970;DHT22;22448;51.298;6.430;2023-02-20T16:47:50;8.10;99.90
35970;DHT22;22448;51.298;6.430;2023-02-20T16:50:21;8.10;99.90
35970;DHT22;22448;51.298;6.430;2023-02-20T16:52:52;8.10;99.90
35970;DHT22;22448;51.298;6.430;2023-02-20T16:55:21;8.10;99.90
35970;DHT22;22448;51.298;6.430;2023-02-20T16:57:48;8.10;99.90
35970;DHT22;22448;51.298;6.430;2023-02-20T17:00:18;8.10;99.90
35970;DHT22;22448;51.298;6.430;2023-02-20T17:02:45;8.10;99.90
35970;DHT22;22448;51.298;6.430;2023-02-20T17:05:12;8.10;99.90
35970;DHT22;22448;51.298;6.430;2023-02-20T17:07:40;8.10;99.90
35970;DHT22;22448;51.298;6.430;2023-02-20T17:10:07;8.10;99.90
35970;DHT22;22448;51.298;6.430;2023-02-20T17:12:34;8.10;99.90
35970;DHT22;22448;51.298;6.430;2023-02-20T17:15:04;8.10;99.90
35970;DHT22;22448;51.298;6.430;2023-02-20T17:17:31;8.10;99.90
35970;DHT22;22448;51.298;6.430;2023-02-20T17:20:02;8.10;99.90
35970;DHT22;22448;51.298;6.430;2023-02-20T17:22:29;8.10;99.90
35970;DHT22;22448;51.298;6.430;2023-02-20T17:24:57;8.10;99.90
35970;DHT22;22448;51.298;6.430;2023-02-20T17:27:24;8.10;99.90
35970;DHT22;22448;51.298;6.430;2023-02-20T17:29:51;8.10;99.90
35970;DHT22;22448;51.298;6.430;2023-02-20T17:32:17;8.10;99.90
35970;DHT22;22448;51.298;6.430;2023-02-20T17:34:44;8.10;99.90
35970;DHT22;22448;51.298;6.430;2023-02-20T17:37:12;8.10;99.90
35970;DHT22;22448;51.298;6.430;2023-02-20T17:39:39;8.10;99.90
35970;DHT22;22448;51.298;6.430;2023-02-20T17:42:06;8.10;99.90
35970;DHT22;22448;51.298;6.430;2023-02-20T17:44:33;8.10;99.90